Station: Cleve Airport  

  Atmospheric Gas Attenuation - ITU Rec 676-11   ----------------- dB/100km -----------------
Date Time Temp RH % AH g/m3 Dew Point Wind Direction Speed kph Gust kph Barometer mB Rainfall Since 9am 24GHz 47GHz 76GHz 122GHz 134GHz 241GHz
04/09 16:20 21.3 47 8.76 9.5 37 52 1007.6 0 19.6 23.9 36.6 96.1 90.9 313.3
04/09 16:10 21.4 45 8.44 9 35 57 1007.6 0 18.9 23.4 35.4 92.9 87.0 299.6
04/09 16:00 21.4 43 8.06 8.3 33 52 1007.7 0 18.1 22.8 34.1 89.3 82.6 284.0
04/09 15:50 21.8 42 8.06 8.3 41 67 1007.8 0 18.1 22.7 33.9 88.9 82.2 282.7
04/09 15:40 22.2 41 8.05 8.3 37 54 1008 0 18.0 22.6 33.7 88.3 81.7 280.9
04/09 15:30 22.6 41 8.24 8.7 37 56 1008 0 18.4 22.8 34.2 89.7 83.4 287.2
04/09 15:20 23 40 8.22 8.7 41 57 1008 0 18.4 22.7 34.0 89.1 82.8 285.0
04/09 15:10 23.3 42 8.78 9.7 44 63 1008 0 19.5 23.4 35.8 94.0 88.9 306.6
04/09 15:00 23.5 40 8.46 9.1 37 57 1008 0 18.8 22.9 34.6 90.7 85.0 292.9
04/09 14:50 23.4 42 8.83 9.8 41 61 1008 0 19.6 23.4 35.9 94.3 89.4 308.2
04/09 14:40 22.5 42 8.39 9 39 65 1008 0 18.7 23.0 34.8 91.2 85.3 293.6
04/09 14:30 22.8 44 8.94 9.9 41 63 1008.2 0 19.9 23.8 36.6 96.1 91.4 315.1
04/09 14:20 23.1 43 8.89 9.8 39 63 1008.2 0 19.8 23.6 36.3 95.3 90.5 311.9
04/09 14:10 23.3 41 8.57 9.3 43 59 1008.3 0 19.1 23.1 35.1 92.0 86.5 298.1
04/09 14:00 23.5 43 9.09 10.2 44 61 1008.3 0 20.2 23.8 36.8 96.7 92.4 318.6
04/09 13:50 23.5 41 8.67 9.5 39 59 1008.3 0 19.3 23.2 35.3 92.7 87.5 301.4
04/09 13:40 23.6 45 9.57 11 41 61 1008.5 0 21.2 24.5 38.5 101.2 97.9 338.1
04/09 13:30 23.2 43 8.94 9.9 50 67 1008.7 0 19.9 23.7 36.4 95.7 91.0 313.7
04/09 13:20 23.1 43 8.89 9.8 46 72 1008.9 0 19.8 23.6 36.3 95.3 90.5 312.1
04/09 13:10 22.5 45 8.99 10 46 67 1009 0 20.0 23.9 36.9 97.0 92.4 318.6
04/09 13:00 22.3 48 9.48 10.8 46 69 1009.4 0 21.0 24.7 38.8 102.1 98.5 340.1
04/09 12:50 22.1 50 9.76 11.2 48 72 1009.6 0 21.6 25.2 40.0 105.1 102.2 352.9
04/09 12:40 22.3 49 9.67 11.1 44 61 1009.9 0 21.4 25.0 39.6 104.0 100.9 348.3
04/09 12:30 22.2 51 10.01 11.6 41 59 1010 0 22.2 25.6 40.9 107.5 105.2 363.3
04/09 12:20 22.2 49 9.62 11 37 63 1010.3 0 21.3 25.0 39.4 103.7 100.4 346.7
04/09 12:10 21.5 49 9.24 10.3 46 67 1010.6 0 20.6 24.6 38.4 100.8 96.7 333.6
04/09 12:00 21.7 52 9.92 11.4 43 65 1010.9 0 22.0 25.6 40.8 107.4 104.8 362.0
04/09 11:50 21.6 53 10.05 11.6 41 57 1011 0 22.3 25.8 41.4 108.8 106.6 368.1
04/09 11:40 21 56 10.26 11.9 44 69 1011.1 0 22.7 26.3 42.5 111.8 110.1 380.2
04/09 11:30 20.6 58 10.38 12.1 44 63 1011 0 23.0 26.6 43.2 113.6 112.1 387.5
04/09 11:20 21 56 10.26 11.9 41 54 1011.2 0 22.7 26.3 42.5 111.8 110.1 380.2
04/09 11:10 20.4 55 9.73 11.1 44 69 1011.3 0 21.7 25.7 40.8 107.2 104.2 359.7
04/09 11:00 20.6 57 10.2 11.8 39 54 1011.4 0 22.6 26.4 42.5 111.8 109.9 379.6
04/09 10:50 20 59 10.2 11.8 41 57 1011.5 0 22.7 26.6 42.8 112.6 110.7 382.5
04/09 10:40 19.5 62 10.4 12 43 63 1011.6 0 23.1 27.0 43.9 115.5 114.0 394.0
04/09 10:30 19.2 60 9.89 11.3 41 61 1011.7 0 22.1 26.3 42.1 110.6 107.9 372.4
04/09 10:20 19.3 59 9.79 11.1 43 69 1011.8 0 21.8 26.1 41.6 109.4 106.5 367.5
04/09 10:10 18.9 59 9.56 10.7 39 54 1011.9 0 21.4 25.9 40.9 107.6 104.1 359.1
04/09 10:00 18.5 64 10.13 11.6 37 50 1012.2 0 22.6 26.9 43.4 114.1 112.0 386.8
04/09 09:50 17.9 64 9.77 11 39 50 1012.4 0 21.9 26.5 42.3 111.2 108.2 373.4
04/09 09:40 16.6 65 9.18 10 39 50 1012.5 0 20.7 26.0 40.7 106.8 102.3 352.6
04/09 09:30 16.5 66 9.27 10.1 41 56 1012.6 0 20.9 26.2 41.1 107.9 103.6 357.1
04/09 09:20 16.1 66 9.05 9.8 39 59 1012.6 0 20.4 25.9 40.4 106.1 101.3 348.9
04/09 09:10 15.9 66 8.94 9.6 35 50 1012.7 0 20.2 25.8 40.1 105.2 100.1 344.8
04/09 09:00 15.5 65 8.59 9 35 44 1013.1 0 19.5 25.4 38.9 102.1 96.1 330.8
04/09 08:50 15.4 64 8.41 8.6 39 52 1013 0 19.1 25.1 38.3 100.3 93.9 323.1
04/09 08:40 15.4 63 8.28 8.4 39 59 1013.2 0 18.8 24.9 37.8 99.0 92.3 317.3
04/09 08:30 15.4 61 8.01 7.9 43 56 1013.3 0 18.3 24.5 36.7 96.2 88.9 305.3
04/09 08:20 15.2 63 8.18 8.2 39 54 1013.6 0 18.6 24.8 37.5 98.3 91.3 313.7
04/09 08:10 15.2 62 8.05 8 41 54 1013.9 0 18.4 24.6 37.0 97.0 89.6 308.0
04/09 08:00 14.8 64 8.11 8.1 39 52 1014.2 0 18.5 24.9 37.4 98.1 90.9 312.3
04/09 07:50 14.8 64 8.11 8.1 41 59 1013.9 0 18.5 24.9 37.4 98.1 90.9 312.2
04/09 07:40 14.6 65 8.13 8.1 41 56 1014.4 0 18.5 25.0 37.6 98.6 91.4 314.1
04/09 07:30 14.7 65 8.18 8.2 35 48 1014.5 0 18.6 25.0 37.8 99.0 91.9 315.9
04/09 07:20 14.3 66 8.11 8 35 50 1014.3 0 18.5 25.0 37.7 98.7 91.5 314.3
04/09 07:10 14.4 65 8.04 7.9 35 54 1014.1 0 18.4 24.9 37.3 97.9 90.4 310.7
04/09 07:00 14.5 65 8.08 8 37 46 1013.9 0 18.4 24.9 37.4 98.1 90.8 312.1
04/09 06:50 14.5 64 7.96 7.8 39 52 1013.8 0 18.2 24.7 37.0 96.9 89.3 306.7
04/09 06:40 14.6 64 8.01 7.9 37 54 1013.8 0 18.3 24.7 37.1 97.3 89.8 308.5
04/09 06:30 14.3 66 8.11 8 37 52 1014.1 0 18.5 25.0 37.6 98.7 91.5 314.3
04/09 06:20 14.1 68 8.25 8.3 35 52 1014 0 18.8 25.3 38.3 100.4 93.5 321.4
04/09 06:10 13.9 68 8.15 8.1 35 52 1014.1 0 18.6 25.2 38.0 99.6 92.5 317.7
04/09 06:00 13.7 69 8.17 8.1 33 44 1014.3 0 18.7 25.3 38.2 100.1 93.0 319.4
04/09 05:50 13.6 70 8.24 8.2 26 43 1014.5 0 18.8 25.4 38.5 101.0 94.0 323.1
04/09 05:40 13.1 73 8.33 8.4 20 32 1014.6 0 19.0 25.7 39.1 102.6 95.8 329.3
04/09 05:30 13 75 8.51 8.7 24 33 1014.8 0 19.4 26.0 39.9 104.7 98.3 338.2
04/09 05:20 12.8 76 8.51 8.7 26 35 1014.9 0 19.4 26.1 40.0 105.0 98.6 339.1
04/09 05:10 12.8 76 8.51 8.7 26 41 1015 0 19.4 26.1 40.0 105.0 98.6 339.1
04/09 05:00 12.8 76 8.51 8.7 30 37 1014.8 0 19.4 26.1 40.0 105.0 98.6 339.1
04/09 04:50 13.1 76 8.67 9 30 39 1014.8 0 19.8 26.3 40.5 106.3 100.4 345.2
04/09 04:40 13.5 74 8.66 9 32 43 1015 0 19.7 26.1 40.3 105.7 99.7 343.1
04/09 04:30 13.6 76 8.94 9.5 30 39 1015.1 0 20.3 26.6 41.4 108.6 103.3 355.7
04/09 04:20 12.8 81 9.07 9.6 28 37 1014.8 0 20.6 27.0 42.3 111.1 106.2 365.5
04/09 04:10 12.9 79 8.9 9.4 28 35 1014.9 0 20.3 26.7 41.6 109.1 103.7 357.0
04/09 04:00 13.5 76 8.89 9.4 26 37 1015.3 0 20.2 26.5 41.2 108.2 102.8 353.9
04/09 03:50 13.4 77 8.95 9.5 26 32 1015.4 0 20.4 26.7 41.5 109.0 103.8 357.2
04/09 03:40 12.9 79 8.9 9.4 28 35 1015.7 0 20.3 26.7 41.6 109.2 103.8 357.2
04/09 03:30 12.5 81 8.91 9.3 24 35 1016 0 20.3 26.9 41.9 109.9 104.5 359.6
04/09 03:20 12.5 82 9.02 9.5 28 35 1016.2 0 20.6 27.1 42.3 111.1 106.0 364.9
04/09 03:10 12.6 82 9.07 9.6 26 33 1016.6 0 20.7 27.2 42.5 111.6 106.6 367.0
04/09 03:00 12.4 84 9.18 9.8 22 28 1016.7 0 20.9 27.4 43.1 113.1 108.4 373.2
04/09 02:50 12.2 85 9.17 9.8 15 17 1016.8 0 20.9 27.5 43.1 113.3 108.6 373.8
04/09 02:40 12.3 86 9.34 10 17 19 1017 0 21.2 27.7 43.8 115.1 110.8 381.6
04/09 02:30 12 87 9.27 9.9 13 24 1017.1 0 21.1 27.7 43.7 114.8 110.2 379.7
04/09 02:20 12 89 9.49 10.2 13 24 1017.2 0 21.6 28.1 44.6 117.3 113.3 390.4
04/09 02:10 11.4 89 9.14 9.7 9 13 1017.4 0 20.9 27.7 43.5 114.2 109.3 376.3
04/09 02:00 11.4 89 9.14 9.7 13 28 1017.6 0 20.9 27.7 43.5 114.2 109.3 376.4
04/09 01:50 11.9 90 9.53 10.3 24 28 1017.7 0 21.7 28.2 44.9 117.9 114.1 393.1
04/09 01:40 11.3 91 9.28 9.9 15 20 1017.7 0 21.2 28.0 44.2 116.0 111.5 383.8
04/09 01:30 11.4 91 9.34 10 13 22 1017.8 0 21.3 28.0 44.4 116.5 112.2 386.3
04/09 01:20 11.9 91 9.64 10.5 15 19 1018.2 0 21.9 28.4 45.4 119.2 115.7 398.6
04/09 01:10 11.8 92 9.68 10.5 15 24 1018.4 0 22.0 28.5 45.6 119.9 116.4 401.2
04/09 01:00 11.3 93 9.49 10.2 13 20 1018.5 0 21.6 28.4 45.1 118.5 114.5 394.4
04/09 00:50 10.6 93 9.08 9.5 7 9 1018.7 0 20.8 27.9 43.7 114.8 109.7 377.7
04/09 00:40 10.7 93 9.14 9.6 11 15 1018.4 0 20.9 27.9 43.9 115.4 110.4 380.1
04/09 00:30 10.5 93 9.02 9.4 9 13 1018.4 0 20.7 27.8 43.5 114.3 109.0 375.1
04/09 00:20 10.7 93 9.14 9.6 11 17 1019.1 0 20.9 28.0 44.0 115.4 110.5 380.3
04/09 00:10 10.6 94 9.18 9.7 13 17 1019.1 0 21.0 28.1 44.2 116.0 111.2 382.7
04/09 00:00 10 94 8.83 9.1 7 13 1019.1 0 20.3 27.7 43.0 112.9 107.1 368.4
03/09 23:50 9.8 94 8.72 8.9 6 9 1018.9 0 20.0 27.5 42.6 111.9 105.8 363.8

Last Refresh: 04-Sep-2026 16:27:42

Bureau of Meteorology